sensor_id;sensor_type;location;lat;lon;timestamp;temperature;humidity
35796;DHT22;21916;52.428;13.302;2023-07-13T00:01:58;18.20;99.90
35796;DHT22;21916;52.428;13.302;2023-07-13T00:04:25;18.10;99.90
35796;DHT22;21916;52.428;13.302;2023-07-13T00:06:52;18.10;99.90
35796;DHT22;21916;52.428;13.302;2023-07-13T00:09:19;18.20;99.90
35796;DHT22;21916;52.428;13.302;2023-07-13T00:11:51;18.20;99.90
35796;DHT22;21916;52.428;13.302;2023-07-13T00:14:17;18.20;99.90
35796;DHT22;21916;52.428;13.302;2023-07-13T00:16:43;18.00;99.90
35796;DHT22;21916;52.428;13.302;2023-07-13T00:19:11;18.00;99.90
35796;DHT22;21916;52.428;13.302;2023-07-13T00:21:41;18.00;99.90
35796;DHT22;21916;52.428;13.302;2023-07-13T00:24:11;17.90;99.90
35796;DHT22;21916;52.428;13.302;2023-07-13T00:26:42;17.90;99.90
35796;DHT22;21916;52.428;13.302;2023-07-13T00:29:12;17.80;99.90
35796;DHT22;21916;52.428;13.302;2023-07-13T00:31:38;17.80;99.90
35796;DHT22;21916;52.428;13.302;2023-07-13T00:34:04;17.80;99.90
35796;DHT22;21916;52.428;13.302;2023-07-13T00:36:31;17.70;99.90
35796;DHT22;21916;52.428;13.302;2023-07-13T00:38:57;17.90;99.90
35796;DHT22;21916;52.428;13.302;2023-07-13T00:41:24;17.90;99.90
35796;DHT22;21916;52.428;13.302;2023-07-13T00:43:50;17.80;99.90
35796;DHT22;21916;52.428;13.302;2023-07-13T00:46:26;17.80;99.90
35796;DHT22;21916;52.428;13.302;2023-07-13T00:48:53;17.70;99.90
35796;DHT22;21916;52.428;13.302;2023-07-13T00:51:25;17.50;99.90
35796;DHT22;21916;52.428;13.302;2023-07-13T00:53:54;17.50;99.90
35796;DHT22;21916;52.428;13.302;2023-07-13T00:56:22;17.40;99.90
35796;DHT22;21916;52.428;13.302;2023-07-13T00:58:48;17.50;99.90
35796;DHT22;21916;52.428;13.302;2023-07-13T01:01:15;17.50;99.90
35796;DHT22;21916;52.428;13.302;2023-07-13T01:03:41;17.40;99.90
35796;DHT22;21916;52.428;13.302;2023-07-13T01:06:07;17.40;99.90
35796;DHT22;21916;52.428;13.302;2023-07-13T01:08:33;17.40;99.90
35796;DHT22;21916;52.428;13.302;2023-07-13T01:11:01;17.30;99.90
35796;DHT22;21916;52.428;13.302;2023-07-13T01:13:27;17.30;99.90
35796;DHT22;21916;52.428;13.302;2023-07-13T01:15:58;17.30;99.90
35796;DHT22;21916;52.428;13.302;2023-07-13T01:18:26;17.30;99.90
35796;DHT22;21916;52.428;13.302;2023-07-13T01:21:01;17.20;99.90
35796;DHT22;21916;52.428;13.302;2023-07-13T01:23:29;17.30;99.90
35796;DHT22;21916;52.428;13.302;2023-07-13T01:25:55;17.30;99.90
35796;DHT22;21916;52.428;13.302;2023-07-13T01:28:23;17.20;99.90
35796;DHT22;21916;52.428;13.302;2023-07-13T01:30:54;17.20;99.90
35796;DHT22;21916;52.428;13.302;2023-07-13T01:33:20;17.10;99.90
35796;DHT22;21916;52.428;13.302;2023-07-13T01:35:47;17.20;99.90
35796;DHT22;21916;52.428;13.302;2023-07-13T01:38:20;17.20;99.90
35796;DHT22;21916;52.428;13.302;2023-07-13T01:40:46;17.10;99.90
35796;DHT22;21916;52.428;13.302;2023-07-13T01:43:13;17.10;99.90
35796;DHT22;21916;52.428;13.302;2023-07-13T01:45:39;17.00;99.90
35796;DHT22;21916;52.428;13.302;2023-07-13T01:48:06;17.00;99.90
35796;DHT22;21916;52.428;13.302;2023-07-13T01:50:33;17.00;99.90
35796;DHT22;21916;52.428;13.302;2023-07-13T01:52:59;17.00;99.90
35796;DHT22;21916;52.428;13.302;2023-07-13T01:55:25;17.00;99.90
35796;DHT22;21916;52.428;13.302;2023-07-13T01:57:52;16.90;99.90
35796;DHT22;21916;52.428;13.302;2023-07-13T02:00:19;17.00;99.90
35796;DHT22;21916;52.428;13.302;2023-07-13T02:02:48;16.90;99.90
35796;DHT22;21916;52.428;13.302;2023-07-13T02:05:14;16.90;99.90
35796;DHT22;21916;52.428;13.302;2023-07-13T02:07:42;16.90;99.90
35796;DHT22;21916;52.428;13.302;2023-07-13T02:10:09;16.80;99.90
35796;DHT22;21916;52.428;13.302;2023-07-13T02:12:35;16.80;99.90
35796;DHT22;21916;52.428;13.302;2023-07-13T02:15:03;16.70;99.90
35796;DHT22;21916;52.428;13.302;2023-07-13T02:17:29;16.70;99.90
35796;DHT22;21916;52.428;13.302;2023-07-13T02:19:55;16.70;99.90
35796;DHT22;21916;52.428;13.302;2023-07-13T02:22:21;16.90;99.90
35796;DHT22;21916;52.428;13.302;2023-07-13T02:24:48;16.60;99.90
35796;DHT22;21916;52.428;13.302;2023-07-13T02:27:18;16.80;99.90
35796;DHT22;21916;52.428;13.302;2023-07-13T02:29:45;16.90;99.90
35796;DHT22;21916;52.428;13.302;2023-07-13T02:32:11;16.80;99.90
35796;DHT22;21916;52.428;13.302;2023-07-13T02:34:37;16.50;99.90
35796;DHT22;21916;52.428;13.302;2023-07-13T02:37:04;16.40;99.90
35796;DHT22;21916;52.428;13.302;2023-07-13T02:39:30;16.40;99.90
35796;DHT22;21916;52.428;13.302;2023-07-13T02:41:59;16.20;99.90
35796;DHT22;21916;52.428;13.302;2023-07-13T02:44:26;16.20;99.90
35796;DHT22;21916;52.428;13.302;2023-07-13T02:46:52;16.20;99.90
35796;DHT22;21916;52.428;13.302;2023-07-13T02:49:18;16.20;99.90
35796;DHT22;21916;52.428;13.302;2023-07-13T02:51:44;16.20;99.90
35796;DHT22;21916;52.428;13.302;2023-07-13T02:54:10;16.10;99.90
35796;DHT22;21916;52.428;13.302;2023-07-13T02:56:37;16.00;99.90
35796;DHT22;21916;52.428;13.302;2023-07-13T02:59:04;16.10;99.90
35796;DHT22;21916;52.428;13.302;2023-07-13T03:01:31;16.10;99.90
35796;DHT22;21916;52.428;13.302;2023-07-13T03:04:01;16.00;99.90
35796;DHT22;21916;52.428;13.302;2023-07-13T03:06:31;16.10;99.90
35796;DHT22;21916;52.428;13.302;2023-07-13T03:08:58;16.10;99.90
35796;DHT22;21916;52.428;13.302;2023-07-13T03:11:26;16.10;99.90
35796;DHT22;21916;52.428;13.302;2023-07-13T03:14:12;16.10;99.90
35796;DHT22;21916;52.428;13.302;2023-07-13T03:16:41;16.10;99.90
35796;DHT22;21916;52.428;13.302;2023-07-13T03:19:07;16.10;99.90
35796;DHT22;21916;52.428;13.302;2023-07-13T03:21:33;16.00;99.90
35796;DHT22;21916;52.428;13.302;2023-07-13T03:23:59;16.10;99.90
35796;DHT22;21916;52.428;13.302;2023-07-13T03:26:25;16.20;99.90
35796;DHT22;21916;52.428;13.302;2023-07-13T03:28:51;16.20;99.90
35796;DHT22;21916;52.428;13.302;2023-07-13T03:31:26;16.30;99.90
35796;DHT22;21916;52.428;13.302;2023-07-13T03:33:55;16.40;99.90
35796;DHT22;21916;52.428;13.302;2023-07-13T03:36:24;16.40;99.90
35796;DHT22;21916;52.428;13.302;2023-07-13T03:38:58;16.40;99.90
35796;DHT22;21916;52.428;13.302;2023-07-13T03:41:28;16.50;99.90
35796;DHT22;21916;52.428;13.302;2023-07-13T03:43:57;16.50;99.90
35796;DHT22;21916;52.428;13.302;2023-07-13T03:46:25;16.50;99.90
35796;DHT22;21916;52.428;13.302;2023-07-13T03:48:52;16.50;99.90
35796;DHT22;21916;52.428;13.302;2023-07-13T03:51:20;16.40;99.90
35796;DHT22;21916;52.428;13.302;2023-07-13T03:53:47;16.40;99.90
35796;DHT22;21916;52.428;13.302;2023-07-13T03:56:18;16.40;99.90
35796;DHT22;21916;52.428;13.302;2023-07-13T03:58:46;16.20;99.90
35796;DHT22;21916;52.428;13.302;2023-07-13T04:01:20;16.20;99.90
35796;DHT22;21916;52.428;13.302;2023-07-13T04:03:47;16.30;99.90
35796;DHT22;21916;52.428;13.302;2023-07-13T04:06:17;16.40;99.90
35796;DHT22;21916;52.428;13.302;2023-07-13T04:08:48;16.40;99.90
35796;DHT22;21916;52.428;13.302;2023-07-13T04:11:16;16.40;99.90
35796;DHT22;21916;52.428;13.302;2023-07-13T04:13:42;16.60;99.90
35796;DHT22;21916;52.428;13.302;2023-07-13T04:16:09;16.70;99.90
35796;DHT22;21916;52.428;13.302;2023-07-13T04:18:35;16.80;99.90
35796;DHT22;21916;52.428;13.302;2023-07-13T04:21:01;16.80;99.90
35796;DHT22;21916;52.428;13.302;2023-07-13T04:23:27;16.80;99.90
35796;DHT22;21916;52.428;13.302;2023-07-13T04:25:54;16.90;99.90
35796;DHT22;21916;52.428;13.302;2023-07-13T04:28:24;17.00;99.90
35796;DHT22;21916;52.428;13.302;2023-07-13T04:30:50;17.10;99.90
35796;DHT22;21916;52.428;13.302;2023-07-13T04:33:17;17.10;99.90
35796;DHT22;21916;52.428;13.302;2023-07-13T04:35:44;17.20;99.90
35796;DHT22;21916;52.428;13.302;2023-07-13T04:38:12;17.20;99.90
35796;DHT22;21916;52.428;13.302;2023-07-13T04:40:38;17.30;99.90
35796;DHT22;21916;52.428;13.302;2023-07-13T04:43:04;17.40;99.90
35796;DHT22;21916;52.428;13.302;2023-07-13T04:45:30;17.50;99.90
35796;DHT22;21916;52.428;13.302;2023-07-13T04:47:57;17.60;99.90
35796;DHT22;21916;52.428;13.302;2023-07-13T04:50:23;17.60;99.90
35796;DHT22;21916;52.428;13.302;2023-07-13T04:52:52;17.70;99.90
35796;DHT22;21916;52.428;13.302;2023-07-13T04:55:18;17.80;99.90
35796;DHT22;21916;52.428;13.302;2023-07-13T04:57:45;17.90;99.90
35796;DHT22;21916;52.428;13.302;2023-07-13T05:00:12;18.00;99.90
35796;DHT22;21916;52.428;13.302;2023-07-13T05:02:39;18.20;99.90
35796;DHT22;21916;52.428;13.302;2023-07-13T05:05:07;18.30;99.90
35796;DHT22;21916;52.428;13.302;2023-07-13T05:07:33;18.40;99.90
35796;DHT22;21916;52.428;13.302;2023-07-13T05:10:00;18.40;99.90
35796;DHT22;21916;52.428;13.302;2023-07-13T05:12:26;18.40;99.90
35796;DHT22;21916;52.428;13.302;2023-07-13T05:14:52;18.60;99.90
35796;DHT22;21916;52.428;13.302;2023-07-13T05:17:18;18.70;99.90
35796;DHT22;21916;52.428;13.302;2023-07-13T05:19:45;18.70;99.90
35796;DHT22;21916;52.428;13.302;2023-07-13T05:22:11;18.80;99.90
35796;DHT22;21916;52.428;13.302;2023-07-13T05:24:38;18.80;99.90
35796;DHT22;21916;52.428;13.302;2023-07-13T05:27:04;18.90;99.90
35796;DHT22;21916;52.428;13.302;2023-07-13T05:29:30;18.90;99.90
35796;DHT22;21916;52.428;13.302;2023-07-13T05:31:56;19.00;99.90
35796;DHT22;21916;52.428;13.302;2023-07-13T05:34:22;19.10;99.90
35796;DHT22;21916;52.428;13.302;2023-07-13T05:36:48;19.10;99.90
35796;DHT22;21916;52.428;13.302;2023-07-13T05:39:15;19.10;99.90
35796;DHT22;21916;52.428;13.302;2023-07-13T05:41:41;19.10;99.90
35796;DHT22;21916;52.428;13.302;2023-07-13T05:44:07;19.10;99.90
35796;DHT22;21916;52.428;13.302;2023-07-13T05:46:33;19.20;99.90
35796;DHT22;21916;52.428;13.302;2023-07-13T05:49:01;19.20;99.90
35796;DHT22;21916;52.428;13.302;2023-07-13T05:51:27;19.20;99.90
35796;DHT22;21916;52.428;13.302;2023-07-13T05:53:54;19.20;99.90
35796;DHT22;21916;52.428;13.302;2023-07-13T05:56:20;19.20;99.90
35796;DHT22;21916;52.428;13.302;2023-07-13T05:58:47;19.30;99.90
35796;DHT22;21916;52.428;13.302;2023-07-13T06:01:15;19.30;99.90
35796;DHT22;21916;52.428;13.302;2023-07-13T06:03:41;19.50;99.90
35796;DHT22;21916;52.428;13.302;2023-07-13T06:06:09;19.60;99.90
35796;DHT22;21916;52.428;13.302;2023-07-13T06:08:35;19.60;99.90
35796;DHT22;21916;52.428;13.302;2023-07-13T06:11:10;19.60;99.90
35796;DHT22;21916;52.428;13.302;2023-07-13T06:13:38;19.60;99.90
35796;DHT22;21916;52.428;13.302;2023-07-13T06:16:04;19.70;99.90
35796;DHT22;21916;52.428;13.302;2023-07-13T06:18:34;19.70;99.90
35796;DHT22;21916;52.428;13.302;2023-07-13T06:21:08;19.70;99.90
35796;DHT22;21916;52.428;13.302;2023-07-13T06:23:34;19.80;99.90
35796;DHT22;21916;52.428;13.302;2023-07-13T06:26:00;20.00;99.90
35796;DHT22;21916;52.428;13.302;2023-07-13T06:28:28;20.00;99.90
35796;DHT22;21916;52.428;13.302;2023-07-13T06:30:55;20.10;99.90
35796;DHT22;21916;52.428;13.302;2023-07-13T06:33:22;20.30;99.90
35796;DHT22;21916;52.428;13.302;2023-07-13T06:35:48;20.40;99.90
35796;DHT22;21916;52.428;13.302;2023-07-13T06:38:13;20.40;99.90
35796;DHT22;21916;52.428;13.302;2023-07-13T06:40:39;20.30;99.90
35796;DHT22;21916;52.428;13.302;2023-07-13T06:43:06;20.30;99.90
35796;DHT22;21916;52.428;13.302;2023-07-13T06:45:40;20.30;99.90
35796;DHT22;21916;52.428;13.302;2023-07-13T06:48:09;20.40;99.90
35796;DHT22;21916;52.428;13.302;2023-07-13T06:50:35;20.40;99.90
35796;DHT22;21916;52.428;13.302;2023-07-13T06:53:00;20.50;99.90
35796;DHT22;21916;52.428;13.302;2023-07-13T06:55:26;20.70;99.90
35796;DHT22;21916;52.428;13.302;2023-07-13T06:57:52;20.70;99.90
35796;DHT22;21916;52.428;13.302;2023-07-13T07:00:18;20.60;99.90
35796;DHT22;21916;52.428;13.302;2023-07-13T07:02:44;20.60;99.90
35796;DHT22;21916;52.428;13.302;2023-07-13T07:05:10;20.60;99.90
35796;DHT22;21916;52.428;13.302;2023-07-13T07:07:36;20.70;99.90
35796;DHT22;21916;52.428;13.302;2023-07-13T07:10:03;20.70;99.90
35796;DHT22;21916;52.428;13.302;2023-07-13T07:12:29;20.80;99.90
35796;DHT22;21916;52.428;13.302;2023-07-13T07:14:55;20.80;99.90
35796;DHT22;21916;52.428;13.302;2023-07-13T07:17:21;20.80;99.90
35796;DHT22;21916;52.428;13.302;2023-07-13T07:19:47;21.00;99.90
35796;DHT22;21916;52.428;13.302;2023-07-13T07:22:13;21.10;99.90
35796;DHT22;21916;52.428;13.302;2023-07-13T07:24:39;21.20;99.90
35796;DHT22;21916;52.428;13.302;2023-07-13T07:27:05;21.40;99.90
35796;DHT22;21916;52.428;13.302;2023-07-13T07:29:33;21.70;99.90
35796;DHT22;21916;52.428;13.302;2023-07-13T07:31:59;21.60;99.90
35796;DHT22;21916;52.428;13.302;2023-07-13T07:34:26;21.80;99.90
35796;DHT22;21916;52.428;13.302;2023-07-13T07:36:53;21.80;99.90
35796;DHT22;21916;52.428;13.302;2023-07-13T07:39:19;22.00;99.90
35796;DHT22;21916;52.428;13.302;2023-07-13T07:41:45;22.20;99.90
35796;DHT22;21916;52.428;13.302;2023-07-13T07:44:11;22.30;99.90
35796;DHT22;21916;52.428;13.302;2023-07-13T07:46:38;22.40;99.90
35796;DHT22;21916;52.428;13.302;2023-07-13T07:49:06;22.30;99.90
35796;DHT22;21916;52.428;13.302;2023-07-13T07:51:31;22.40;99.60
35796;DHT22;21916;52.428;13.302;2023-07-13T07:53:57;22.50;99.90
35796;DHT22;21916;52.428;13.302;2023-07-13T07:56:23;22.40;99.70
35796;DHT22;21916;52.428;13.302;2023-07-13T07:58:49;22.40;99.70
35796;DHT22;21916;52.428;13.302;2023-07-13T08:01:15;22.20;99.60
35796;DHT22;21916;52.428;13.302;2023-07-13T08:03:41;22.20;99.60
35796;DHT22;21916;52.428;13.302;2023-07-13T08:06:07;22.20;99.90
35796;DHT22;21916;52.428;13.302;2023-07-13T08:08:34;22.00;99.90
35796;DHT22;21916;52.428;13.302;2023-07-13T08:11:06;22.10;99.90
35796;DHT22;21916;52.428;13.302;2023-07-13T08:13:35;22.40;99.30
35796;DHT22;21916;52.428;13.302;2023-07-13T08:16:03;22.70;98.70
35796;DHT22;21916;52.428;13.302;2023-07-13T08:18:31;22.80;98.70
35796;DHT22;21916;52.428;13.302;2023-07-13T08:20:56;22.80;98.40
35796;DHT22;21916;52.428;13.302;2023-07-13T08:23:25;22.90;98.20
35796;DHT22;21916;52.428;13.302;2023-07-13T08:25:54;22.80;98.30
35796;DHT22;21916;52.428;13.302;2023-07-13T08:28:21;22.80;98.70
35796;DHT22;21916;52.428;13.302;2023-07-13T08:30:48;22.50;99.50
35796;DHT22;21916;52.428;13.302;2023-07-13T08:33:20;22.40;99.20
35796;DHT22;21916;52.428;13.302;2023-07-13T08:35:49;22.50;99.20
35796;DHT22;21916;52.428;13.302;2023-07-13T08:38:16;22.70;98.70
35796;DHT22;21916;52.428;13.302;2023-07-13T08:40:43;22.50;98.60
35796;DHT22;21916;52.428;13.302;2023-07-13T08:43:16;22.50;98.80
35796;DHT22;21916;52.428;13.302;2023-07-13T08:45:49;22.30;98.60
35796;DHT22;21916;52.428;13.302;2023-07-13T08:48:28;22.30;98.70
35796;DHT22;21916;52.428;13.302;2023-07-13T08:50:58;22.50;98.70
35796;DHT22;21916;52.428;13.302;2023-07-13T08:56:19;22.50;99.00
35796;DHT22;21916;52.428;13.302;2023-07-13T08:58:50;22.60;98.10
35796;DHT22;21916;52.428;13.302;2023-07-13T09:06:39;22.90;95.10
35796;DHT22;21916;52.428;13.302;2023-07-13T09:12:17;23.00;97.00
35796;DHT22;21916;52.428;13.302;2023-07-13T09:14:52;23.10;96.00
35796;DHT22;21916;52.428;13.302;2023-07-13T09:17:26;23.20;94.10
35796;DHT22;21916;52.428;13.302;2023-07-13T09:20:00;23.50;94.20
35796;DHT22;21916;52.428;13.302;2023-07-13T09:22:27;23.90;93.70
35796;DHT22;21916;52.428;13.302;2023-07-13T09:25:04;23.90;94.00
35796;DHT22;21916;52.428;13.302;2023-07-13T09:27:37;23.90;93.90
35796;DHT22;21916;52.428;13.302;2023-07-13T09:30:15;24.00;93.80
35796;DHT22;21916;52.428;13.302;2023-07-13T09:32:47;23.80;94.30
35796;DHT22;21916;52.428;13.302;2023-07-13T09:35:19;23.80;94.70
35796;DHT22;21916;52.428;13.302;2023-07-13T09:37:46;23.80;95.00
35796;DHT22;21916;52.428;13.302;2023-07-13T09:43:15;23.90;93.90
35796;DHT22;21916;52.428;13.302;2023-07-13T09:45:45;24.20;93.30
35796;DHT22;21916;52.428;13.302;2023-07-13T09:48:15;24.10;93.30
35796;DHT22;21916;52.428;13.302;2023-07-13T09:50:42;23.80;93.60
35796;DHT22;21916;52.428;13.302;2023-07-13T09:53:19;23.70;94.20
35796;DHT22;21916;52.428;13.302;2023-07-13T09:55:47;23.70;94.00
35796;DHT22;21916;52.428;13.302;2023-07-13T09:58:22;23.60;93.50
35796;DHT22;21916;52.428;13.302;2023-07-13T10:01:03;23.50;92.80
35796;DHT22;21916;52.428;13.302;2023-07-13T10:03:35;23.60;92.20
35796;DHT22;21916;52.428;13.302;2023-07-13T10:06:17;23.90;91.90
35796;DHT22;21916;52.428;13.302;2023-07-13T10:08:45;24.30;91.60
35796;DHT22;21916;52.428;13.302;2023-07-13T10:11:29;24.50;91.20
35796;DHT22;21916;52.428;13.302;2023-07-13T10:13:57;24.90;91.10
35796;DHT22;21916;52.428;13.302;2023-07-13T10:16:30;25.00;91.10
35796;DHT22;21916;52.428;13.302;2023-07-13T10:19:06;25.40;90.80
35796;DHT22;21916;52.428;13.302;2023-07-13T10:21:43;25.30;90.20
35796;DHT22;21916;52.428;13.302;2023-07-13T10:24:21;25.20;89.20
35796;DHT22;21916;52.428;13.302;2023-07-13T10:27:01;25.10;88.80
35796;DHT22;21916;52.428;13.302;2023-07-13T10:29:34;24.70;89.90
35796;DHT22;21916;52.428;13.302;2023-07-13T10:32:03;24.50;90.50
35796;DHT22;21916;52.428;13.302;2023-07-13T10:34:30;24.20;89.90
35796;DHT22;21916;52.428;13.302;2023-07-13T10:36:57;24.00;90.30
35796;DHT22;21916;52.428;13.302;2023-07-13T10:39:27;24.00;90.80
35796;DHT22;21916;52.428;13.302;2023-07-13T10:42:05;24.10;90.80
35796;DHT22;21916;52.428;13.302;2023-07-13T10:44:33;24.40;90.20
35796;DHT22;21916;52.428;13.302;2023-07-13T10:47:03;24.80;89.70
35796;DHT22;21916;52.428;13.302;2023-07-13T10:49:33;25.40;88.00
35796;DHT22;21916;52.428;13.302;2023-07-13T10:52:01;26.00;87.00
35796;DHT22;21916;52.428;13.302;2023-07-13T10:54:32;26.70;85.10
35796;DHT22;21916;52.428;13.302;2023-07-13T10:57:15;27.50;84.20
35796;DHT22;21916;52.428;13.302;2023-07-13T10:59:46;27.60;81.10
35796;DHT22;21916;52.428;13.302;2023-07-13T11:02:27;26.60;80.90
35796;DHT22;21916;52.428;13.302;2023-07-13T11:04:55;26.20;81.00
35796;DHT22;21916;52.428;13.302;2023-07-13T11:07:25;26.80;80.30
35796;DHT22;21916;52.428;13.302;2023-07-13T11:10:04;26.90;77.60
35796;DHT22;21916;52.428;13.302;2023-07-13T11:12:53;27.20;79.10
35796;DHT22;21916;52.428;13.302;2023-07-13T11:15:39;28.30;75.40
35796;DHT22;21916;52.428;13.302;2023-07-13T11:18:22;28.00;74.50
35796;DHT22;21916;52.428;13.302;2023-07-13T11:20:49;27.70;75.40
35796;DHT22;21916;52.428;13.302;2023-07-13T11:25:42;28.70;73.50
35796;DHT22;21916;52.428;13.302;2023-07-13T11:36:10;28.60;73.90
35796;DHT22;21916;52.428;13.302;2023-07-13T11:38:47;29.10;74.70
35796;DHT22;21916;52.428;13.302;2023-07-13T11:41:42;29.50;74.40
35796;DHT22;21916;52.428;13.302;2023-07-13T11:44:19;29.60;73.70
35796;DHT22;21916;52.428;13.302;2023-07-13T11:46:51;29.40;71.30
35796;DHT22;21916;52.428;13.302;2023-07-13T11:49:24;29.30;71.60
35796;DHT22;21916;52.428;13.302;2023-07-13T11:51:53;29.30;71.40
35796;DHT22;21916;52.428;13.302;2023-07-13T11:54:34;28.80;72.20
35796;DHT22;21916;52.428;13.302;2023-07-13T11:57:24;29.50;71.20
35796;DHT22;21916;52.428;13.302;2023-07-13T11:59:52;29.00;71.90
35796;DHT22;21916;52.428;13.302;2023-07-13T12:02:40;28.70;72.30
35796;DHT22;21916;52.428;13.302;2023-07-13T12:05:14;28.70;71.50
35796;DHT22;21916;52.428;13.302;2023-07-13T12:07:41;28.70;72.00
35796;DHT22;21916;52.428;13.302;2023-07-13T12:10:24;28.50;71.70
35796;DHT22;21916;52.428;13.302;2023-07-13T12:13:00;27.80;73.30
35796;DHT22;21916;52.428;13.302;2023-07-13T12:15:36;28.90;71.80
35796;DHT22;21916;52.428;13.302;2023-07-13T12:18:15;29.60;69.80
35796;DHT22;21916;52.428;13.302;2023-07-13T12:20:42;31.50;68.30
35796;DHT22;21916;52.428;13.302;2023-07-13T12:23:33;30.70;67.10
35796;DHT22;21916;52.428;13.302;2023-07-13T12:26:03;30.40;67.10
35796;DHT22;21916;52.428;13.302;2023-07-13T12:31:06;30.90;68.40
35796;DHT22;21916;52.428;13.302;2023-07-13T12:33:33;31.10;68.70
35796;DHT22;21916;52.428;13.302;2023-07-13T12:36:04;31.00;68.70
35796;DHT22;21916;52.428;13.302;2023-07-13T12:38:32;31.20;67.80
35796;DHT22;21916;52.428;13.302;2023-07-13T12:40:58;30.60;68.80
35796;DHT22;21916;52.428;13.302;2023-07-13T12:43:28;30.10;68.10
35796;DHT22;21916;52.428;13.302;2023-07-13T12:46:05;28.90;69.40
35796;DHT22;21916;52.428;13.302;2023-07-13T12:48:42;29.50;70.20
35796;DHT22;21916;52.428;13.302;2023-07-13T12:51:13;30.00;69.40
35796;DHT22;21916;52.428;13.302;2023-07-13T12:53:42;31.20;67.70
35796;DHT22;21916;52.428;13.302;2023-07-13T12:56:18;31.60;66.40
35796;DHT22;21916;52.428;13.302;2023-07-13T12:58:46;29.60;67.90
35796;DHT22;21916;52.428;13.302;2023-07-13T13:01:21;28.60;69.10
35796;DHT22;21916;52.428;13.302;2023-07-13T13:03:53;29.00;68.60
35796;DHT22;21916;52.428;13.302;2023-07-13T13:08:53;27.20;71.10
35796;DHT22;21916;52.428;13.302;2023-07-13T13:11:22;27.10;71.60
35796;DHT22;21916;52.428;13.302;2023-07-13T13:13:49;27.40;70.90
35796;DHT22;21916;52.428;13.302;2023-07-13T13:16:48;28.40;70.00
35796;DHT22;21916;52.428;13.302;2023-07-13T13:19:27;29.70;68.70
35796;DHT22;21916;52.428;13.302;2023-07-13T13:21:55;30.40;67.10
35796;DHT22;21916;52.428;13.302;2023-07-13T13:24:24;29.90;67.90
35796;DHT22;21916;52.428;13.302;2023-07-13T13:26:53;30.30;68.00
35796;DHT22;21916;52.428;13.302;2023-07-13T13:29:24;31.20;66.00
35796;DHT22;21916;52.428;13.302;2023-07-13T13:31:51;31.20;65.60
35796;DHT22;21916;52.428;13.302;2023-07-13T13:34:18;31.30;64.90
35796;DHT22;21916;52.428;13.302;2023-07-13T13:36:47;31.60;63.40
35796;DHT22;21916;52.428;13.302;2023-07-13T13:39:20;32.20;63.50
35796;DHT22;21916;52.428;13.302;2023-07-13T13:41:48;31.70;63.80
35796;DHT22;21916;52.428;13.302;2023-07-13T13:44:16;30.40;64.70
35796;DHT22;21916;52.428;13.302;2023-07-13T13:46:47;30.20;64.90
35796;DHT22;21916;52.428;13.302;2023-07-13T13:49:19;29.60;65.60
35796;DHT22;21916;52.428;13.302;2023-07-13T13:51:46;28.30;67.60
35796;DHT22;21916;52.428;13.302;2023-07-13T13:54:14;27.40;68.40
35796;DHT22;21916;52.428;13.302;2023-07-13T13:56:46;27.70;68.60
35796;DHT22;21916;52.428;13.302;2023-07-13T13:59:12;28.20;68.30
35796;DHT22;21916;52.428;13.302;2023-07-13T14:01:41;28.50;67.60
35796;DHT22;21916;52.428;13.302;2023-07-13T14:04:17;28.50;68.50
35796;DHT22;21916;52.428;13.302;2023-07-13T14:06:44;29.00;67.80
35796;DHT22;21916;52.428;13.302;2023-07-13T14:09:13;29.00;66.80
35796;DHT22;21916;52.428;13.302;2023-07-13T14:11:41;29.40;66.30
35796;DHT22;21916;52.428;13.302;2023-07-13T14:14:13;29.90;66.40
35796;DHT22;21916;52.428;13.302;2023-07-13T14:16:40;30.20;64.80
35796;DHT22;21916;52.428;13.302;2023-07-13T14:19:11;29.90;64.90
35796;DHT22;21916;52.428;13.302;2023-07-13T14:21:37;29.10;64.90
35796;DHT22;21916;52.428;13.302;2023-07-13T14:24:04;29.90;64.40
35796;DHT22;21916;52.428;13.302;2023-07-13T14:26:32;29.70;64.70
35796;DHT22;21916;52.428;13.302;2023-07-13T14:29:01;29.40;65.30
35796;DHT22;21916;52.428;13.302;2023-07-13T14:31:28;29.40;65.60
35796;DHT22;21916;52.428;13.302;2023-07-13T14:33:57;29.30;67.10
35796;DHT22;21916;52.428;13.302;2023-07-13T14:36:36;28.90;66.40
35796;DHT22;21916;52.428;13.302;2023-07-13T14:39:18;29.40;66.60
35796;DHT22;21916;52.428;13.302;2023-07-13T14:41:46;30.00;65.80
35796;DHT22;21916;52.428;13.302;2023-07-13T14:44:16;29.60;65.50
35796;DHT22;21916;52.428;13.302;2023-07-13T14:46:44;29.90;65.40
35796;DHT22;21916;52.428;13.302;2023-07-13T14:49:30;30.30;65.00
35796;DHT22;21916;52.428;13.302;2023-07-13T14:51:58;30.90;64.40
35796;DHT22;21916;52.428;13.302;2023-07-13T14:54:24;30.10;64.00
35796;DHT22;21916;52.428;13.302;2023-07-13T14:56:50;29.60;64.40
35796;DHT22;21916;52.428;13.302;2023-07-13T14:59:17;29.50;64.10
35796;DHT22;21916;52.428;13.302;2023-07-13T15:01:48;29.60;63.10
35796;DHT22;21916;52.428;13.302;2023-07-13T15:04:14;29.10;63.50
35796;DHT22;21916;52.428;13.302;2023-07-13T15:07:01;29.40;63.00
35796;DHT22;21916;52.428;13.302;2023-07-13T15:09:28;29.90;62.10
35796;DHT22;21916;52.428;13.302;2023-07-13T15:11:57;29.90;62.30
35796;DHT22;21916;52.428;13.302;2023-07-13T15:14:24;30.40;62.40
35796;DHT22;21916;52.428;13.302;2023-07-13T15:16:52;31.00;61.00
35796;DHT22;21916;52.428;13.302;2023-07-13T15:19:19;30.20;61.20
35796;DHT22;21916;52.428;13.302;2023-07-13T15:21:49;31.00;61.10
35796;DHT22;21916;52.428;13.302;2023-07-13T15:24:17;31.80;60.60
35796;DHT22;21916;52.428;13.302;2023-07-13T15:26:43;31.10;61.20
35796;DHT22;21916;52.428;13.302;2023-07-13T15:29:12;30.70;60.40
35796;DHT22;21916;52.428;13.302;2023-07-13T15:31:38;30.10;61.00
35796;DHT22;21916;52.428;13.302;2023-07-13T15:34:11;29.90;60.90
35796;DHT22;21916;52.428;13.302;2023-07-13T15:36:38;30.30;61.30
35796;DHT22;21916;52.428;13.302;2023-07-13T15:39:06;30.30;61.30
35796;DHT22;21916;52.428;13.302;2023-07-13T15:41:33;30.70;61.30
35796;DHT22;21916;52.428;13.302;2023-07-13T15:44:00;31.40;60.80
35796;DHT22;21916;52.428;13.302;2023-07-13T15:46:30;31.80;60.60
35796;DHT22;21916;52.428;13.302;2023-07-13T15:48:57;31.20;61.00
35796;DHT22;21916;52.428;13.302;2023-07-13T15:51:30;30.90;61.40
35796;DHT22;21916;52.428;13.302;2023-07-13T15:53:59;30.70;61.80
35796;DHT22;21916;52.428;13.302;2023-07-13T15:56:29;30.30;61.90
35796;DHT22;21916;52.428;13.302;2023-07-13T15:58:56;29.60;61.90